createdAt,value
2023-03-17T00:01:20.929Z,1.58
2023-03-17T00:06:24.446Z,1.70
2023-03-17T00:11:21.504Z,1.50
2023-03-17T00:26:14.251Z,1.70
2023-03-17T00:31:16.620Z,2.75
2023-03-17T00:36:24.219Z,1.75
2023-03-17T00:41:20.703Z,1.67
2023-03-17T00:46:24.528Z,1.85
2023-03-17T00:51:21.801Z,1.52
2023-03-17T00:56:20.945Z,2.45
2023-03-17T01:01:18.422Z,1.77
2023-03-17T01:06:15.086Z,1.60
2023-03-17T01:11:17.679Z,1.60
2023-03-17T01:16:15.341Z,1.70
2023-03-17T01:21:12.607Z,1.85
2023-03-17T01:26:09.350Z,1.42
2023-03-17T01:31:06.010Z,1.85
2023-03-17T01:36:02.543Z,1.90
2023-03-17T01:41:03.501Z,2.08
2023-03-17T01:46:29.232Z,2.08
2023-03-17T01:51:47.242Z,1.85
2023-03-17T01:56:45.794Z,2.05
2023-03-17T02:01:45.178Z,2.10
2023-03-17T02:06:56.718Z,1.80
2023-03-17T02:11:55.864Z,2.08
2023-03-17T02:16:52.614Z,2.10
2023-03-17T02:21:58.880Z,2.05
2023-03-17T02:26:56.908Z,1.90
2023-03-17T02:31:53.782Z,2.22
2023-03-17T02:36:50.318Z,2.00
2023-03-17T02:41:47.133Z,1.88
2023-03-17T02:46:43.856Z,2.45
2023-03-17T02:51:42.286Z,1.77
2023-03-17T02:56:38.699Z,2.20
2023-03-17T03:01:36.260Z,2.65
2023-03-17T03:06:33.486Z,2.00
2023-03-17T03:11:30.258Z,2.38
2023-03-17T03:16:26.747Z,2.30
2023-03-17T03:21:23.395Z,2.05
2023-03-17T03:26:25.636Z,2.70
2023-03-17T03:31:22.838Z,2.20
2023-03-17T03:36:20.289Z,1.92
2023-03-17T03:41:16.727Z,2.08
2023-03-17T03:46:13.215Z,2.83
2023-03-17T03:51:09.741Z,2.40
2023-03-17T03:56:06.859Z,2.33
2023-03-17T04:01:06.040Z,2.38
2023-03-17T04:06:03.472Z,2.00
2023-03-17T04:11:00.280Z,2.83
2023-03-17T04:15:56.945Z,2.50
2023-03-17T04:20:59.520Z,2.80
2023-03-17T04:25:55.998Z,3.10
2023-03-17T04:30:52.481Z,2.33
2023-03-17T04:35:51.155Z,2.72
2023-03-17T04:40:47.663Z,2.75
2023-03-17T04:45:44.105Z,2.90
2023-03-17T04:50:40.558Z,2.35
2023-03-17T04:55:37.454Z,2.60
2023-03-17T05:00:38.586Z,2.75
2023-03-17T05:05:36.061Z,2.53
2023-03-17T05:10:32.796Z,2.60
2023-03-17T05:15:31.360Z,2.50
2023-03-17T05:20:27.813Z,3.13
2023-03-17T05:25:25.243Z,3.22
2023-03-17T05:30:21.672Z,3.58
2023-03-17T05:35:18.728Z,2.90
2023-03-17T05:40:15.319Z,3.45
2023-03-17T05:45:12.396Z,3.13
2023-03-17T05:55:07.839Z,3.20
2023-03-17T06:00:05.340Z,2.83
2023-03-17T06:05:02.380Z,3.63
2023-03-17T06:14:55.678Z,3.30
2023-03-17T06:19:52.123Z,3.33
2023-03-17T06:24:48.913Z,3.03
2023-03-17T06:29:45.372Z,3.28
2023-03-17T06:34:42.615Z,3.45
2023-03-17T14:44:20.102Z,1.77
2023-03-17T14:49:18.958Z,2.33
2023-03-17T15:19:13.551Z,1.60
2023-03-17T15:24:33.465Z,2.15
2023-03-17T16:58:00.735Z,1.95
2023-03-17T17:02:58.105Z,1.98
2023-03-17T22:07:49.803Z,3.20
2023-03-17T22:18:28.722Z,3.25
2023-03-17T22:23:26.564Z,4.22
2023-03-17T22:28:23.654Z,3.33
2023-03-17T22:33:20.324Z,3.10
2023-03-17T22:43:14.415Z,3.47
2023-03-17T22:48:11.027Z,3.25
2023-03-17T22:53:07.736Z,3.08
2023-03-17T23:03:00.744Z,3.67
2023-03-17T23:07:57.582Z,3.00
2023-03-17T23:12:54.212Z,3.30
2023-03-17T23:17:51.902Z,3.97
2023-03-17T23:22:48.588Z,4.13
2023-03-17T23:27:45.274Z,3.60
2023-03-17T23:37:39.706Z,3.47
2023-03-17T23:47:32.996Z,3.55
2023-03-17T23:52:30.608Z,3.30
2023-03-17T23:57:27.136Z,3.17
